createdAt,value
2018-02-10T00:00:38.252Z,91.70
2018-02-10T00:03:05.660Z,90.93
2018-02-10T00:05:33.074Z,98.77
2018-02-10T00:08:00.478Z,96.63
2018-02-10T00:10:28.018Z,86.60
2018-02-10T00:12:55.437Z,91.05
2018-02-10T00:17:56.801Z,88.47
2018-02-10T00:20:24.212Z,100.73
2018-02-10T00:22:51.633Z,89.40
2018-02-10T00:25:19.057Z,101.90
2018-02-10T00:27:46.484Z,98.20
2018-02-10T00:30:14.258Z,91.78
2018-02-10T00:32:41.762Z,99.60
2018-02-10T00:35:09.160Z,94.75
2018-02-10T00:37:36.571Z,93.93
2018-02-10T00:40:03.998Z,98.93
2018-02-10T00:42:31.425Z,105.87
2018-02-10T00:44:58.849Z,109.87
2018-02-10T00:47:26.284Z,103.20
2018-02-10T00:49:53.701Z,108.43
2018-02-10T00:52:21.141Z,112.28
2018-02-10T00:54:49.066Z,104.83
2018-02-10T00:57:16.474Z,105.50
2018-02-10T00:59:43.877Z,94.53
2018-02-10T01:02:11.298Z,97.37
2018-02-10T01:04:38.721Z,92.43
2018-02-10T01:07:06.158Z,88.93
2018-02-10T01:09:33.566Z,101.10
2018-02-10T01:12:01.002Z,90.90
2018-02-10T01:14:28.474Z,84.40
2018-02-10T01:16:55.892Z,99.33
2018-02-10T01:19:23.310Z,100.72
2018-02-10T01:21:50.744Z,93.67
2018-02-10T01:24:18.153Z,102.77
2018-02-10T01:26:45.604Z,94.43
2018-02-10T01:29:13.085Z,92.37
2018-02-10T01:31:40.530Z,96.67
2018-02-10T01:34:07.969Z,108.43
2018-02-10T01:36:35.493Z,99.07
2018-02-10T01:39:02.918Z,106.20
2018-02-10T01:41:30.414Z,106.23
2018-02-10T01:43:57.824Z,90.27
2018-02-10T01:46:25.250Z,100.77
2018-02-10T01:48:52.660Z,98.90
2018-02-10T01:51:20.069Z,87.67
2018-02-10T01:53:47.933Z,89.60
2018-02-10T01:56:15.348Z,99.60
2018-02-10T01:58:42.800Z,103.50
2018-02-10T02:01:10.212Z,99.20
2018-02-10T02:03:37.628Z,99.17
2018-02-10T02:06:05.086Z,92.47
2018-02-10T02:08:32.507Z,107.00
2018-02-10T02:10:59.929Z,95.77
2018-02-10T02:13:27.363Z,98.90
2018-02-10T02:15:54.770Z,104.07
2018-02-10T02:18:22.229Z,89.50
2018-02-10T02:20:49.636Z,90.40
2018-02-10T02:23:17.056Z,93.97
2018-02-10T02:25:44.494Z,89.67
2018-02-10T02:28:11.908Z,92.57
2018-02-10T02:30:39.365Z,92.13
2018-02-10T02:33:06.784Z,83.20
2018-02-10T02:35:34.185Z,89.80
2018-02-10T02:38:01.600Z,83.13
2018-02-10T02:40:29.051Z,99.72
2018-02-10T02:42:56.502Z,106.60
2018-02-10T02:45:23.939Z,110.80
2018-02-10T02:47:51.346Z,90.95
2018-02-10T02:50:18.766Z,100.10
2018-02-10T02:52:46.209Z,90.73
2018-02-10T02:55:13.628Z,86.77
2018-02-10T02:57:41.092Z,84.10
2018-02-10T03:00:08.517Z,87.10
2018-02-10T03:02:35.934Z,83.53
2018-02-10T03:05:03.368Z,93.37
2018-02-10T03:07:30.773Z,90.50
2018-02-10T03:09:58.188Z,88.07
2018-02-10T03:12:25.742Z,93.68
2018-02-10T03:14:53.185Z,91.83
2018-02-10T03:17:20.613Z,82.40
2018-02-10T03:19:48.034Z,97.80
2018-02-10T03:22:15.461Z,100.07
2018-02-10T03:24:42.930Z,84.10
2018-02-10T03:27:10.341Z,95.18
2018-02-10T03:29:37.780Z,90.63
2018-02-10T03:32:05.193Z,87.53
2018-02-10T03:34:32.624Z,94.17
2018-02-10T03:37:00.035Z,91.63
2018-02-10T03:39:27.444Z,84.93
2018-02-10T03:41:54.938Z,92.57
2018-02-10T03:44:22.909Z,82.28
2018-02-10T03:46:50.345Z,95.87
2018-02-10T03:49:17.809Z,100.57
2018-02-10T03:51:45.320Z,102.67
2018-02-10T03:54:12.725Z,95.30
2018-02-10T03:56:40.153Z,90.40
2018-02-10T03:59:07.560Z,94.70
2018-02-10T04:01:34.973Z,92.07
2018-02-10T04:04:02.415Z,93.77
2018-02-10T04:06:29.829Z,96.67
2018-02-10T04:08:57.245Z,89.15
2018-02-10T04:11:24.661Z,86.37
2018-02-10T04:13:52.069Z,86.80
2018-02-10T04:16:19.497Z,101.23
2018-02-10T04:18:46.912Z,78.37
2018-02-10T04:21:14.332Z,86.67
2018-02-10T04:23:41.752Z,89.57
2018-02-10T04:26:09.193Z,95.77
2018-02-10T04:28:36.623Z,89.20
2018-02-10T04:31:04.082Z,88.87
2018-02-10T04:33:31.498Z,84.43
2018-02-10T04:35:58.940Z,94.50
2018-02-10T04:38:26.390Z,83.73
2018-02-10T04:40:54.281Z,92.22
2018-02-10T04:43:21.732Z,86.00
2018-02-10T04:45:49.187Z,86.35
2018-02-10T04:48:16.602Z,87.73
2018-02-10T04:50:44.016Z,98.90
2018-02-10T04:53:11.437Z,91.15
2018-02-10T04:55:38.954Z,88.53
2018-02-10T04:58:06.383Z,87.63
2018-02-10T05:00:33.790Z,89.70
2018-02-10T05:03:01.238Z,84.23
2018-02-10T05:05:28.653Z,87.35
2018-02-10T05:07:56.088Z,78.37
2018-02-10T05:10:23.491Z,81.80
2018-02-10T05:12:50.917Z,85.78
2018-02-10T05:15:18.338Z,89.23
2018-02-10T05:17:45.761Z,90.10
2018-02-10T05:20:13.168Z,80.70
2018-02-10T05:22:40.626Z,73.73
2018-02-10T05:25:07.998Z,88.27
2018-02-10T05:27:35.488Z,76.07
2018-02-10T05:30:02.951Z,79.10
2018-02-10T05:32:30.368Z,85.03
2018-02-10T05:34:57.789Z,93.67
2018-02-10T05:37:25.639Z,82.22
2018-02-10T05:39:53.051Z,80.10
2018-02-10T05:42:20.477Z,92.83
2018-02-10T05:44:47.978Z,78.43
2018-02-10T05:47:15.429Z,76.53
2018-02-10T05:49:42.890Z,68.85
2018-02-10T05:52:10.320Z,94.30
2018-02-10T05:54:37.727Z,86.60
2018-02-10T05:57:05.163Z,85.80
2018-02-10T05:59:32.553Z,92.00
2018-02-10T06:02:00.067Z,72.70
2018-02-10T06:04:27.488Z,78.33
2018-02-10T06:06:54.909Z,84.97
2018-02-10T06:09:22.373Z,82.80
2018-02-10T06:11:49.786Z,82.43
2018-02-10T06:14:17.222Z,79.37
2018-02-10T06:16:44.668Z,80.10
2018-02-10T06:19:12.088Z,83.33
2018-02-10T06:21:39.499Z,101.77
2018-02-10T06:24:06.938Z,93.20
2018-02-10T06:26:34.364Z,92.53
2018-02-10T06:29:01.777Z,94.03
2018-02-10T06:31:29.234Z,94.67
2018-02-10T06:33:57.258Z,86.45
2018-02-10T06:36:24.654Z,79.33
2018-02-10T06:38:52.073Z,79.03
2018-02-10T06:41:19.484Z,79.93
2018-02-10T06:43:46.957Z,82.47
2018-02-10T06:46:14.384Z,85.60
2018-02-10T06:48:41.839Z,84.33
2018-02-10T06:51:09.288Z,95.43
2018-02-10T06:53:36.702Z,99.37
2018-02-10T06:56:04.129Z,85.73
2018-02-10T06:58:31.549Z,92.17
2018-02-10T07:00:58.965Z,80.83
2018-02-10T07:03:26.384Z,76.50
2018-02-10T07:05:53.869Z,94.27
2018-02-10T07:08:21.297Z,88.17
2018-02-10T07:10:48.721Z,98.43
2018-02-10T07:13:16.155Z,87.78
2018-02-10T07:15:43.584Z,89.73
2018-02-10T07:18:11.015Z,97.37
2018-02-10T07:20:38.505Z,70.50
2018-02-10T07:23:05.927Z,76.37
2018-02-10T07:25:33.353Z,80.07
2018-02-10T07:28:00.761Z,65.70
2018-02-10T07:30:28.787Z,57.62
2018-02-10T07:32:56.201Z,55.40
2018-02-10T07:35:23.623Z,66.83
2018-02-10T07:37:51.034Z,58.33
2018-02-10T07:40:18.468Z,39.23
2018-02-10T07:42:45.909Z,47.20
2018-02-10T07:45:13.334Z,45.27
2018-02-10T07:47:40.748Z,47.33
2018-02-10T07:50:08.249Z,52.67
2018-02-10T07:52:35.664Z,45.13
2018-02-10T07:55:03.090Z,51.53
2018-02-10T07:57:30.506Z,38.40
2018-02-10T07:59:57.929Z,39.10
2018-02-10T08:02:25.357Z,22.03
2018-02-10T08:04:52.830Z,32.27
2018-02-10T08:07:20.249Z,35.60
2018-02-10T08:09:47.702Z,32.13
2018-02-10T08:12:15.073Z,36.87
2018-02-10T08:14:42.510Z,37.67
2018-02-10T08:17:09.912Z,42.00
2018-02-10T08:19:37.351Z,41.47
2018-02-10T08:22:04.777Z,48.47
2018-02-10T08:24:32.203Z,44.88
2018-02-10T08:27:00.556Z,46.58
2018-02-10T08:29:27.973Z,48.30
2018-02-10T08:31:55.428Z,42.47
2018-02-10T08:34:22.856Z,45.63
2018-02-10T08:36:50.291Z,44.77
2018-02-10T08:39:17.702Z,47.43
2018-02-10T08:41:45.125Z,58.13
2018-02-10T08:44:12.549Z,49.63
2018-02-10T08:46:40.004Z,49.90
2018-02-10T08:49:07.465Z,55.00
2018-02-10T08:51:34.965Z,47.37
2018-02-10T08:54:02.396Z,39.90
2018-02-10T08:56:29.811Z,39.53
2018-02-10T08:58:57.214Z,44.50
2018-02-10T09:01:24.638Z,42.00
2018-02-10T09:03:52.061Z,38.40
2018-02-10T09:06:19.468Z,33.87
2018-02-10T09:08:46.909Z,47.90
2018-02-10T09:11:14.332Z,35.23
2018-02-10T09:13:41.756Z,35.43
2018-02-10T09:16:09.209Z,39.73
2018-02-10T09:18:36.617Z,42.53
2018-02-10T09:21:04.052Z,44.17
2018-02-10T09:23:32.449Z,38.90
2018-02-10T09:25:59.861Z,36.70
2018-02-10T09:28:27.277Z,39.43
2018-02-10T09:30:54.688Z,42.20
2018-02-10T09:33:22.105Z,40.00
2018-02-10T09:35:49.506Z,41.13
2018-02-10T09:38:16.929Z,38.27
2018-02-10T09:40:44.357Z,39.73
2018-02-10T09:43:11.803Z,35.17
2018-02-10T09:45:39.217Z,29.33
2018-02-10T09:48:06.632Z,33.73
2018-02-10T09:50:34.049Z,34.20
2018-02-10T09:53:01.490Z,31.93
2018-02-10T09:55:28.907Z,26.77
2018-02-10T09:57:56.362Z,33.03
2018-02-10T10:00:23.778Z,34.77
2018-02-10T10:02:51.251Z,25.80
2018-02-10T10:05:18.644Z,24.40
2018-02-10T10:07:46.070Z,25.67
2018-02-10T10:10:13.473Z,26.83
2018-02-10T10:12:40.894Z,23.50
2018-02-10T10:15:08.312Z,21.10
2018-02-10T10:17:35.731Z,26.73
2018-02-10T10:20:03.145Z,21.60
2018-02-10T10:22:30.569Z,22.30
2018-02-10T10:24:57.985Z,25.07
2018-02-10T10:27:25.399Z,21.00
2018-02-10T10:29:52.874Z,24.23
2018-02-10T10:32:20.314Z,21.57
2018-02-10T10:34:47.762Z,21.92
2018-02-10T10:37:15.253Z,27.97
2018-02-10T10:39:42.657Z,21.60
2018-02-10T10:42:10.073Z,29.23
2018-02-10T10:44:37.493Z,24.97
2018-02-10T10:47:05.428Z,29.00
2018-02-10T10:49:32.881Z,27.60
2018-02-10T10:52:00.313Z,23.13
2018-02-10T10:54:27.768Z,27.33
2018-02-10T10:56:55.186Z,27.10
2018-02-10T10:59:22.632Z,27.70
2018-02-10T11:01:50.041Z,25.97
2018-02-10T11:04:17.462Z,25.50
2018-02-10T11:06:44.885Z,29.17
2018-02-10T11:09:12.326Z,25.43
2018-02-10T11:11:39.734Z,24.50
2018-02-10T11:14:07.153Z,24.83
2018-02-10T11:16:34.582Z,26.70
2018-02-10T11:19:01.997Z,30.07
2018-02-10T11:21:29.430Z,32.17
2018-02-10T11:23:56.881Z,26.10
2018-02-10T11:26:24.321Z,30.03
2018-02-10T11:28:51.761Z,30.37
2018-02-10T11:31:19.172Z,32.87
2018-02-10T11:33:46.590Z,28.93
2018-02-10T11:36:14.017Z,27.58
2018-02-10T11:38:41.541Z,30.63
2018-02-10T11:41:08.942Z,29.20
2018-02-10T11:43:36.370Z,31.17
2018-02-10T11:46:03.779Z,35.00
2018-02-10T11:48:31.216Z,30.13
2018-02-10T11:50:58.609Z,28.05
2018-02-10T11:53:26.037Z,34.40
2018-02-10T11:55:53.478Z,24.90
2018-02-10T11:58:20.935Z,26.33
2018-02-10T12:00:48.390Z,45.40
2018-02-10T12:03:15.800Z,32.77
2018-02-10T12:05:43.217Z,20.88
2018-02-10T12:08:10.630Z,27.57
2018-02-10T12:10:38.678Z,28.10
2018-02-10T12:13:06.088Z,27.20
2018-02-10T12:15:33.520Z,26.50
2018-02-10T12:18:00.984Z,23.57
2018-02-10T12:20:28.401Z,27.57
2018-02-10T12:22:55.825Z,29.13
2018-02-10T12:25:23.310Z,28.23
2018-02-10T12:27:50.772Z,26.60
2018-02-10T12:30:18.215Z,27.50
2018-02-10T12:32:45.656Z,27.17
2018-02-10T12:35:13.086Z,27.00
2018-02-10T12:37:40.538Z,28.40
2018-02-10T12:40:07.981Z,26.87
2018-02-10T12:42:35.493Z,22.07
2018-02-10T12:45:02.969Z,21.90
2018-02-10T12:47:36.046Z,26.43
2018-02-10T12:50:03.495Z,27.80
2018-02-10T12:52:30.906Z,25.97
2018-02-10T12:54:58.403Z,25.80
2018-02-10T12:57:25.906Z,30.87
2018-02-10T12:59:53.317Z,27.73
2018-02-10T13:02:20.725Z,33.60
2018-02-10T13:04:48.137Z,27.63
2018-02-10T13:07:15.572Z,27.40
2018-02-10T13:09:42.999Z,29.23
2018-02-10T13:12:11.294Z,32.60
2018-02-10T13:14:38.711Z,31.80
2018-02-10T13:17:06.125Z,32.60
2018-02-10T13:19:33.584Z,39.17
2018-02-10T13:22:01.000Z,39.83
2018-02-10T13:24:28.410Z,39.37
2018-02-10T13:26:55.848Z,40.37
2018-02-10T13:29:23.282Z,38.97
2018-02-10T13:31:50.721Z,42.00
2018-02-10T13:34:18.142Z,43.28
2018-02-10T13:36:45.567Z,34.90
2018-02-10T13:39:12.986Z,44.80
2018-02-10T13:41:40.401Z,37.55
2018-02-10T13:44:07.819Z,44.83
2018-02-10T13:46:35.282Z,42.70
2018-02-10T13:49:02.746Z,41.28
2018-02-10T13:51:30.199Z,33.17
2018-02-10T13:53:57.607Z,36.00
2018-02-10T13:56:25.033Z,34.95
2018-02-10T13:58:52.455Z,33.30
2018-02-10T14:01:19.878Z,40.67
2018-02-10T14:03:47.290Z,42.00
2018-02-10T14:06:14.720Z,36.10
2018-02-10T14:08:42.217Z,34.50
2018-02-10T14:11:09.637Z,34.15
2018-02-10T14:13:37.102Z,31.03
2018-02-10T14:16:04.509Z,25.87
2018-02-10T14:18:31.937Z,29.33
2018-02-10T14:20:59.365Z,34.47
2018-02-10T14:23:26.837Z,31.13
2018-02-10T14:25:54.252Z,29.60
2018-02-10T14:28:21.669Z,28.80
2018-02-10T14:30:49.095Z,28.55
2018-02-10T14:33:16.515Z,29.33
2018-02-10T14:35:44.915Z,28.27
2018-02-10T14:38:12.337Z,35.90
2018-02-10T14:40:39.745Z,28.73
2018-02-10T14:43:07.186Z,27.87
2018-02-10T14:45:34.601Z,25.37
2018-02-10T14:48:02.034Z,30.47
2018-02-10T14:50:29.454Z,21.10
2018-02-10T14:52:56.881Z,27.03
2018-02-10T14:55:24.303Z,23.87
2018-02-10T14:57:51.728Z,30.45
2018-02-10T15:00:19.197Z,21.70
2018-02-10T15:02:46.627Z,25.40
2018-02-10T15:05:14.087Z,21.23
2018-02-10T15:07:41.591Z,29.63
2018-02-10T15:10:09.036Z,26.27
2018-02-10T15:12:36.566Z,23.50
2018-02-10T15:15:03.986Z,23.40
2018-02-10T15:17:31.490Z,28.73
2018-02-10T15:19:59.029Z,23.97
2018-02-10T15:22:26.445Z,21.00
2018-02-10T15:24:53.882Z,22.67
2018-02-10T15:27:21.334Z,24.03
2018-02-10T15:30:00.701Z,22.83
2018-02-10T15:32:40.065Z,20.08
2018-02-10T15:35:07.518Z,22.53
2018-02-10T15:37:34.935Z,20.77
2018-02-10T15:40:02.351Z,23.90
2018-02-10T15:42:29.753Z,25.80
2018-02-10T15:44:57.239Z,25.97
2018-02-10T15:47:24.663Z,26.20
2018-02-10T15:49:52.093Z,21.80
2018-02-10T15:52:19.567Z,23.37
2018-02-10T15:54:47.067Z,27.70
2018-02-10T15:57:14.486Z,24.80
2018-02-10T15:59:41.913Z,33.53
2018-02-10T16:02:09.324Z,22.17
2018-02-10T16:04:36.741Z,23.95
2018-02-10T16:07:04.205Z,20.23
2018-02-10T16:09:31.683Z,30.13
2018-02-10T16:11:59.129Z,25.10
2018-02-10T16:14:26.545Z,24.80
2018-02-10T16:16:53.962Z,20.47
2018-02-10T16:19:21.371Z,19.75
2018-02-10T16:21:49.616Z,20.42
2018-02-10T16:24:17.074Z,25.40
2018-02-10T16:26:44.510Z,23.83
2018-02-10T16:29:11.934Z,20.40
2018-02-10T16:31:39.341Z,21.63
2018-02-10T16:34:06.769Z,24.87
2018-02-10T16:36:34.185Z,21.10
2018-02-10T16:39:01.624Z,14.83
2018-02-10T16:41:29.026Z,18.83
2018-02-10T16:43:56.470Z,23.20
2018-02-10T16:46:23.890Z,23.77
2018-02-10T16:48:51.296Z,21.43
2018-02-10T16:51:18.730Z,20.90
2018-02-10T16:53:46.139Z,24.10
2018-02-10T16:56:13.633Z,24.90
2018-02-10T16:58:41.036Z,18.10
2018-02-10T17:01:08.465Z,20.70
2018-02-10T17:03:35.877Z,30.53
2018-02-10T17:06:03.307Z,21.20
2018-02-10T17:08:30.725Z,23.90
2018-02-10T17:10:58.141Z,53.63
2018-02-10T17:13:25.581Z,30.93
2018-02-10T17:15:53.025Z,21.15
2018-02-10T17:18:20.434Z,28.63
2018-02-10T17:20:47.870Z,21.50
2018-02-10T17:23:15.285Z,19.40
2018-02-10T17:25:42.744Z,18.23
2018-02-10T17:28:10.240Z,13.93
2018-02-10T17:30:37.657Z,17.03
2018-02-10T17:33:05.056Z,20.33
2018-02-10T17:35:32.521Z,17.23
2018-02-10T17:37:59.941Z,22.17
2018-02-10T17:40:27.379Z,16.60
2018-02-10T17:42:54.878Z,17.33
2018-02-10T17:45:23.108Z,19.90
2018-02-10T17:47:50.542Z,23.03
2018-02-10T17:50:17.943Z,24.25
2018-02-10T17:52:45.364Z,22.50
2018-02-10T17:55:12.863Z,18.53
2018-02-10T17:57:40.309Z,25.98
2018-02-10T18:00:07.718Z,24.00
2018-02-10T18:02:35.133Z,31.13
2018-02-10T18:05:02.544Z,24.03
2018-02-10T18:07:29.966Z,28.50
2018-02-10T18:09:57.378Z,34.37
2018-02-10T18:12:24.846Z,16.93
2018-02-10T18:14:52.244Z,17.60
2018-02-10T18:17:19.758Z,23.30
2018-02-10T18:19:47.168Z,20.17
2018-02-10T18:22:14.590Z,20.90
2018-02-10T18:24:42.005Z,20.07
2018-02-10T18:27:09.432Z,21.20
2018-02-10T18:29:36.936Z,18.27
2018-02-10T18:32:04.371Z,17.33
2018-02-10T18:34:31.816Z,17.93
2018-02-10T18:36:59.225Z,20.03
2018-02-10T18:39:26.651Z,15.57
2018-02-10T18:41:54.377Z,19.60
2018-02-10T18:44:21.875Z,18.23
2018-02-10T18:46:49.326Z,18.25
2018-02-10T18:49:16.752Z,15.47
2018-02-10T18:51:44.170Z,21.07
2018-02-10T18:54:11.577Z,18.60
2018-02-10T18:56:39.009Z,21.30
2018-02-10T18:59:06.416Z,29.63
2018-02-10T19:01:33.847Z,21.60
2018-02-10T19:04:01.369Z,21.10
2018-02-10T19:06:28.786Z,21.80
2018-02-10T19:08:56.235Z,20.07
2018-02-10T19:11:23.680Z,32.67
2018-02-10T19:13:51.109Z,16.27
2018-02-10T19:16:18.521Z,19.43
2018-02-10T19:18:45.945Z,15.90
2018-02-10T19:21:13.361Z,18.03
2018-02-10T19:23:40.782Z,14.27
2018-02-10T19:26:08.300Z,17.83
2018-02-10T19:28:35.711Z,20.03
2018-02-10T19:31:03.146Z,21.90
2018-02-10T19:33:30.574Z,20.56
2018-02-10T19:35:57.971Z,16.37
2018-02-10T19:38:25.834Z,13.98
2018-02-10T19:40:53.256Z,15.00
2018-02-10T19:43:20.684Z,19.23
2018-02-10T19:45:48.129Z,13.40
2018-02-10T19:48:15.572Z,21.40
2018-02-10T19:50:42.983Z,18.58
2018-02-10T19:53:10.393Z,16.53
2018-02-10T19:55:37.812Z,16.57
2018-02-10T19:58:05.232Z,13.88
2018-02-10T20:00:32.644Z,14.57
2018-02-10T20:03:00.086Z,16.10
2018-02-10T20:05:27.497Z,12.83
2018-02-10T20:07:54.959Z,17.97
2018-02-10T20:10:22.429Z,17.80
2018-02-10T20:12:49.848Z,25.60
2018-02-10T20:15:17.259Z,16.90
2018-02-10T20:17:44.678Z,16.23
2018-02-10T20:20:12.092Z,14.03
2018-02-10T20:37:05.302Z,20.55
2018-02-10T20:56:35.374Z,17.12
2018-02-10T21:16:05.413Z,15.02
2018-02-10T21:18:33.818Z,16.20
2018-02-10T21:21:01.230Z,15.63
2018-02-10T21:23:28.722Z,14.77
2018-02-10T21:25:56.142Z,10.87
2018-02-10T21:28:23.571Z,13.80
2018-02-10T21:30:51.002Z,13.43
2018-02-10T21:33:18.405Z,12.07
2018-02-10T21:35:45.820Z,13.35
2018-02-10T21:38:13.249Z,16.10
2018-02-10T21:40:40.683Z,15.40
2018-02-10T21:43:08.101Z,15.18
2018-02-10T21:45:35.510Z,12.90
2018-02-10T21:48:02.925Z,11.70
2018-02-10T21:50:30.337Z,13.77
2018-02-10T21:52:57.753Z,15.23
2018-02-10T21:55:25.223Z,13.57
2018-02-10T21:57:52.662Z,11.95
2018-02-10T22:02:41.130Z,17.27
2018-02-10T22:05:08.541Z,13.90
2018-02-10T22:07:35.960Z,21.50
2018-02-10T22:10:03.392Z,17.30
2018-02-10T22:12:30.807Z,17.40
2018-02-10T22:14:58.218Z,21.23
2018-02-10T22:17:25.633Z,18.97
2018-02-10T22:19:53.049Z,16.93
2018-02-10T22:22:20.474Z,19.40
2018-02-10T22:24:47.882Z,21.87
2018-02-10T22:27:15.307Z,19.60
2018-02-10T22:29:42.784Z,23.53
2018-02-10T22:32:10.208Z,19.90
2018-02-10T22:34:37.659Z,18.35
2018-02-10T22:37:05.114Z,14.20
2018-02-10T22:39:32.521Z,14.07
2018-02-10T22:41:59.933Z,14.02
2018-02-10T22:44:27.358Z,16.80
2018-02-10T22:46:54.787Z,12.47
2018-02-10T22:49:22.205Z,15.15
2018-02-10T22:51:49.625Z,13.07
2018-02-10T22:54:17.017Z,10.90
2018-02-10T22:56:44.442Z,11.25
2018-02-10T22:59:11.930Z,9.87
2018-02-10T23:01:39.298Z,9.57
2018-02-10T23:04:06.707Z,10.45
2018-02-10T23:06:34.117Z,9.73
2018-02-10T23:09:01.992Z,14.25
2018-02-10T23:11:29.431Z,12.83
2018-02-10T23:13:56.838Z,14.70
2018-02-10T23:16:24.253Z,10.73
2018-02-10T23:18:51.678Z,9.73
2018-02-10T23:21:19.078Z,11.93
2018-02-10T23:23:46.525Z,12.97
2018-02-10T23:26:13.933Z,12.00
2018-02-10T23:28:41.346Z,12.03
2018-02-10T23:31:08.764Z,12.73
2018-02-10T23:33:36.228Z,11.50
2018-02-10T23:36:03.637Z,10.07
2018-02-10T23:38:31.048Z,15.33
2018-02-10T23:40:58.485Z,13.93
2018-02-10T23:43:25.933Z,10.23
2018-02-10T23:45:53.348Z,11.20
2018-02-10T23:48:20.765Z,16.53
2018-02-10T23:50:48.161Z,11.43
2018-02-10T23:53:15.586Z,10.87
2018-02-10T23:55:42.984Z,12.03
2018-02-10T23:58:10.415Z,10.30
